sensor_id;sensor_type;location;lat;lon;timestamp;temperature;humidity
1570;DHT22;778;50.120;8.698;2023-03-01T00:01:47;0.90;99.90
1570;DHT22;778;50.120;8.698;2023-03-01T00:04:15;0.80;99.90
1570;DHT22;778;50.120;8.698;2023-03-01T00:06:43;0.90;99.90
1570;DHT22;778;50.120;8.698;2023-03-01T00:09:13;0.90;99.90
1570;DHT22;778;50.120;8.698;2023-03-01T00:11:41;0.90;99.90
1570;DHT22;778;50.120;8.698;2023-03-01T00:14:12;1.00;99.90
1570;DHT22;778;50.120;8.698;2023-03-01T00:16:45;1.00;99.90
1570;DHT22;778;50.120;8.698;2023-03-01T00:19:15;1.00;99.90
1570;DHT22;778;50.120;8.698;2023-03-01T00:21:44;1.00;99.90
1570;DHT22;778;50.120;8.698;2023-03-01T00:24:13;0.90;99.90
1570;DHT22;778;50.120;8.698;2023-03-01T00:26:42;0.90;99.90
1570;DHT22;778;50.120;8.698;2023-03-01T00:29:12;1.00;99.90
1570;DHT22;778;50.120;8.698;2023-03-01T00:31:40;0.90;99.90
1570;DHT22;778;50.120;8.698;2023-03-01T00:34:09;0.90;99.90
1570;DHT22;778;50.120;8.698;2023-03-01T00:36:38;0.90;99.90
1570;DHT22;778;50.120;8.698;2023-03-01T00:39:10;0.90;99.90
1570;DHT22;778;50.120;8.698;2023-03-01T00:41:40;0.90;99.90
1570;DHT22;778;50.120;8.698;2023-03-01T00:44:09;0.90;99.90
1570;DHT22;778;50.120;8.698;2023-03-01T00:46:39;0.90;99.90
1570;DHT22;778;50.120;8.698;2023-03-01T00:49:08;0.90;99.90
1570;DHT22;778;50.120;8.698;2023-03-01T00:51:36;0.80;99.90
1570;DHT22;778;50.120;8.698;2023-03-01T00:54:07;0.80;99.90
1570;DHT22;778;50.120;8.698;2023-03-01T00:56:36;0.80;99.90
1570;DHT22;778;50.120;8.698;2023-03-01T00:59:05;0.80;99.90
1570;DHT22;778;50.120;8.698;2023-03-01T01:01:33;0.70;99.90
1570;DHT22;778;50.120;8.698;2023-03-01T01:04:08;0.70;99.90
1570;DHT22;778;50.120;8.698;2023-03-01T01:06:39;0.70;99.90
1570;DHT22;778;50.120;8.698;2023-03-01T01:09:12;0.70;99.90
1570;DHT22;778;50.120;8.698;2023-03-01T01:11:45;0.60;99.90
1570;DHT22;778;50.120;8.698;2023-03-01T01:14:14;0.70;99.90
1570;DHT22;778;50.120;8.698;2023-03-01T01:16:42;0.80;99.90
1570;DHT22;778;50.120;8.698;2023-03-01T01:19:13;0.80;99.90
1570;DHT22;778;50.120;8.698;2023-03-01T01:21:42;0.80;99.90
1570;DHT22;778;50.120;8.698;2023-03-01T01:24:12;0.80;99.90
1570;DHT22;778;50.120;8.698;2023-03-01T01:26:40;0.90;99.90
1570;DHT22;778;50.120;8.698;2023-03-01T01:29:10;0.90;99.90
1570;DHT22;778;50.120;8.698;2023-03-01T01:31:40;0.90;99.90
1570;DHT22;778;50.120;8.698;2023-03-01T01:34:19;0.90;99.90
1570;DHT22;778;50.120;8.698;2023-03-01T01:36:49;0.80;99.90
1570;DHT22;778;50.120;8.698;2023-03-01T01:39:20;0.70;99.90
1570;DHT22;778;50.120;8.698;2023-03-01T01:41:48;0.80;99.90
1570;DHT22;778;50.120;8.698;2023-03-01T01:44:19;0.80;99.90
1570;DHT22;778;50.120;8.698;2023-03-01T01:46:53;0.80;99.90
1570;DHT22;778;50.120;8.698;2023-03-01T01:49:32;0.80;99.90
1570;DHT22;778;50.120;8.698;2023-03-01T01:52:07;0.80;99.90
1570;DHT22;778;50.120;8.698;2023-03-01T01:54:42;0.80;99.90
1570;DHT22;778;50.120;8.698;2023-03-01T01:57:14;0.80;99.90
1570;DHT22;778;50.120;8.698;2023-03-01T01:59:49;0.80;99.90
1570;DHT22;778;50.120;8.698;2023-03-01T02:02:20;0.80;99.90
1570;DHT22;778;50.120;8.698;2023-03-01T02:04:54;0.70;99.90
1570;DHT22;778;50.120;8.698;2023-03-01T02:07:30;0.80;99.90
1570;DHT22;778;50.120;8.698;2023-03-01T02:09:59;0.80;99.90
1570;DHT22;778;50.120;8.698;2023-03-01T02:12:28;0.80;99.90
1570;DHT22;778;50.120;8.698;2023-03-01T02:14:57;0.80;99.90
1570;DHT22;778;50.120;8.698;2023-03-01T02:17:25;0.80;99.90
1570;DHT22;778;50.120;8.698;2023-03-01T02:20:08;0.80;99.90
1570;DHT22;778;50.120;8.698;2023-03-01T02:22:44;0.80;99.90
1570;DHT22;778;50.120;8.698;2023-03-01T02:25:24;0.80;99.90
1570;DHT22;778;50.120;8.698;2023-03-01T02:27:58;0.70;99.90
1570;DHT22;778;50.120;8.698;2023-03-01T02:30:33;0.70;99.90
1570;DHT22;778;50.120;8.698;2023-03-01T02:33:03;0.70;99.90
1570;DHT22;778;50.120;8.698;2023-03-01T02:35:35;0.70;99.90
1570;DHT22;778;50.120;8.698;2023-03-01T02:38:07;0.70;99.90
1570;DHT22;778;50.120;8.698;2023-03-01T02:40:38;0.80;99.90
1570;DHT22;778;50.120;8.698;2023-03-01T02:43:09;0.80;99.90
1570;DHT22;778;50.120;8.698;2023-03-01T02:45:48;0.90;99.90
1570;DHT22;778;50.120;8.698;2023-03-01T02:48:17;0.80;99.90
1570;DHT22;778;50.120;8.698;2023-03-01T02:51:00;0.70;99.90
1570;DHT22;778;50.120;8.698;2023-03-01T02:53:38;0.70;99.90
1570;DHT22;778;50.120;8.698;2023-03-01T02:56:10;0.70;99.90
1570;DHT22;778;50.120;8.698;2023-03-01T02:58:40;0.70;99.90
1570;DHT22;778;50.120;8.698;2023-03-01T03:01:14;0.70;99.90
1570;DHT22;778;50.120;8.698;2023-03-01T03:03:43;0.70;99.90
1570;DHT22;778;50.120;8.698;2023-03-01T03:06:12;0.80;99.90
1570;DHT22;778;50.120;8.698;2023-03-01T03:08:41;0.70;99.90
1570;DHT22;778;50.120;8.698;2023-03-01T03:11:10;0.60;99.90
1570;DHT22;778;50.120;8.698;2023-03-01T03:13:39;0.50;99.90
1570;DHT22;778;50.120;8.698;2023-03-01T03:16:16;0.50;99.90
1570;DHT22;778;50.120;8.698;2023-03-01T03:18:45;0.40;99.90
1570;DHT22;778;50.120;8.698;2023-03-01T03:21:14;0.30;99.90
1570;DHT22;778;50.120;8.698;2023-03-01T03:23:43;0.30;99.90
1570;DHT22;778;50.120;8.698;2023-03-01T03:26:12;0.30;99.90
1570;DHT22;778;50.120;8.698;2023-03-01T03:28:42;0.40;99.90
1570;DHT22;778;50.120;8.698;2023-03-01T03:31:10;0.30;99.90
1570;DHT22;778;50.120;8.698;2023-03-01T03:33:40;0.30;99.90
1570;DHT22;778;50.120;8.698;2023-03-01T03:36:08;0.30;99.90
1570;DHT22;778;50.120;8.698;2023-03-01T03:38:40;0.40;99.90
1570;DHT22;778;50.120;8.698;2023-03-01T03:41:08;0.40;99.90
1570;DHT22;778;50.120;8.698;2023-03-01T03:43:38;0.30;99.90
1570;DHT22;778;50.120;8.698;2023-03-01T03:46:08;0.30;99.90
1570;DHT22;778;50.120;8.698;2023-03-01T03:48:39;0.30;99.90
1570;DHT22;778;50.120;8.698;2023-03-01T03:51:11;0.20;99.90
1570;DHT22;778;50.120;8.698;2023-03-01T03:53:40;0.30;99.90
1570;DHT22;778;50.120;8.698;2023-03-01T03:56:09;0.30;99.90
1570;DHT22;778;50.120;8.698;2023-03-01T03:58:38;0.30;99.90
1570;DHT22;778;50.120;8.698;2023-03-01T04:01:07;0.30;99.90
1570;DHT22;778;50.120;8.698;2023-03-01T04:03:35;0.30;99.90
1570;DHT22;778;50.120;8.698;2023-03-01T04:06:05;0.30;99.90
1570;DHT22;778;50.120;8.698;2023-03-01T04:08:34;0.20;99.90
1570;DHT22;778;50.120;8.698;2023-03-01T04:11:03;0.20;99.90
1570;DHT22;778;50.120;8.698;2023-03-01T04:13:46;0.20;99.90
1570;DHT22;778;50.120;8.698;2023-03-01T04:16:15;0.20;99.90
1570;DHT22;778;50.120;8.698;2023-03-01T04:18:44;0.20;99.90
1570;DHT22;778;50.120;8.698;2023-03-01T04:21:14;0.20;99.90
1570;DHT22;778;50.120;8.698;2023-03-01T04:23:42;0.10;99.90
1570;DHT22;778;50.120;8.698;2023-03-01T04:26:11;0.10;99.90
1570;DHT22;778;50.120;8.698;2023-03-01T04:28:40;0.10;99.90
1570;DHT22;778;50.120;8.698;2023-03-01T04:31:13;0.10;99.90
1570;DHT22;778;50.120;8.698;2023-03-01T04:33:46;0.10;99.90
1570;DHT22;778;50.120;8.698;2023-03-01T04:36:17;0.10;99.90
1570;DHT22;778;50.120;8.698;2023-03-01T04:38:46;-0.10;99.90
1570;DHT22;778;50.120;8.698;2023-03-01T04:41:16;-0.10;99.90
1570;DHT22;778;50.120;8.698;2023-03-01T04:43:46;-0.10;99.90
1570;DHT22;778;50.120;8.698;2023-03-01T04:46:17;-0.10;99.90
1570;DHT22;778;50.120;8.698;2023-03-01T04:48:47;-0.10;99.90
1570;DHT22;778;50.120;8.698;2023-03-01T04:51:17;-0.10;99.90
1570;DHT22;778;50.120;8.698;2023-03-01T04:53:46;-0.10;99.90
1570;DHT22;778;50.120;8.698;2023-03-01T04:56:15;-0.10;99.90
1570;DHT22;778;50.120;8.698;2023-03-01T04:58:45;-0.10;99.90
1570;DHT22;778;50.120;8.698;2023-03-01T05:01:15;-0.20;99.90
1570;DHT22;778;50.120;8.698;2023-03-01T05:03:45;-0.10;99.90
1570;DHT22;778;50.120;8.698;2023-03-01T05:06:15;-0.20;99.90
1570;DHT22;778;50.120;8.698;2023-03-01T05:08:45;-0.20;99.90
1570;DHT22;778;50.120;8.698;2023-03-01T05:11:13;-0.20;99.90
1570;DHT22;778;50.120;8.698;2023-03-01T05:13:42;-0.20;99.90
1570;DHT22;778;50.120;8.698;2023-03-01T05:16:10;-0.10;99.90
1570;DHT22;778;50.120;8.698;2023-03-01T05:18:40;-0.10;99.90
1570;DHT22;778;50.120;8.698;2023-03-01T05:21:10;-0.10;99.90
1570;DHT22;778;50.120;8.698;2023-03-01T05:23:41;-0.20;99.90
1570;DHT22;778;50.120;8.698;2023-03-01T05:26:09;-0.20;99.90
1570;DHT22;778;50.120;8.698;2023-03-01T05:28:53;-0.10;99.90
1570;DHT22;778;50.120;8.698;2023-03-01T05:31:26;-0.20;99.90
1570;DHT22;778;50.120;8.698;2023-03-01T05:33:57;-0.20;99.90
1570;DHT22;778;50.120;8.698;2023-03-01T05:36:26;-0.20;99.90
1570;DHT22;778;50.120;8.698;2023-03-01T05:38:56;-0.10;99.90
1570;DHT22;778;50.120;8.698;2023-03-01T05:41:25;-0.10;99.90
1570;DHT22;778;50.120;8.698;2023-03-01T05:43:53;-0.10;99.90
1570;DHT22;778;50.120;8.698;2023-03-01T05:46:22;0.00;99.90
1570;DHT22;778;50.120;8.698;2023-03-01T05:48:51;-0.10;99.90
1570;DHT22;778;50.120;8.698;2023-03-01T05:51:20;-0.10;99.90
1570;DHT22;778;50.120;8.698;2023-03-01T05:53:49;-0.10;99.90
1570;DHT22;778;50.120;8.698;2023-03-01T05:56:18;-0.10;99.90
1570;DHT22;778;50.120;8.698;2023-03-01T05:58:49;0.00;99.90
1570;DHT22;778;50.120;8.698;2023-03-01T06:01:17;0.00;99.90
1570;DHT22;778;50.120;8.698;2023-03-01T06:03:46;0.00;99.90
1570;DHT22;778;50.120;8.698;2023-03-01T06:06:14;0.00;99.90
1570;DHT22;778;50.120;8.698;2023-03-01T06:08:43;0.10;99.90
1570;DHT22;778;50.120;8.698;2023-03-01T06:11:11;0.00;99.90
1570;DHT22;778;50.120;8.698;2023-03-01T06:13:42;0.00;99.90
1570;DHT22;778;50.120;8.698;2023-03-01T06:16:12;-0.10;99.90
1570;DHT22;778;50.120;8.698;2023-03-01T06:18:41;0.00;99.90
1570;DHT22;778;50.120;8.698;2023-03-01T06:21:09;0.00;99.90
1570;DHT22;778;50.120;8.698;2023-03-01T06:23:38;0.00;99.90
1570;DHT22;778;50.120;8.698;2023-03-01T06:26:07;0.00;99.90
1570;DHT22;778;50.120;8.698;2023-03-01T06:28:36;0.00;99.90
1570;DHT22;778;50.120;8.698;2023-03-01T06:31:06;0.00;99.90
1570;DHT22;778;50.120;8.698;2023-03-01T06:33:36;0.00;99.90
1570;DHT22;778;50.120;8.698;2023-03-01T06:36:05;0.00;99.90
1570;DHT22;778;50.120;8.698;2023-03-01T06:38:35;0.00;99.90
1570;DHT22;778;50.120;8.698;2023-03-01T06:41:03;0.00;99.90
1570;DHT22;778;50.120;8.698;2023-03-01T06:43:32;0.10;99.90
1570;DHT22;778;50.120;8.698;2023-03-01T06:46:04;0.10;99.90
1570;DHT22;778;50.120;8.698;2023-03-01T06:48:34;0.10;99.90
1570;DHT22;778;50.120;8.698;2023-03-01T06:51:03;0.20;99.90
1570;DHT22;778;50.120;8.698;2023-03-01T06:53:32;0.20;99.90
1570;DHT22;778;50.120;8.698;2023-03-01T06:56:00;0.20;99.90
1570;DHT22;778;50.120;8.698;2023-03-01T06:58:29;0.30;99.90
1570;DHT22;778;50.120;8.698;2023-03-01T07:00:58;0.30;99.90
1570;DHT22;778;50.120;8.698;2023-03-01T07:03:27;0.40;99.90
1570;DHT22;778;50.120;8.698;2023-03-01T07:05:56;0.30;99.90
1570;DHT22;778;50.120;8.698;2023-03-01T07:08:24;0.40;99.90
1570;DHT22;778;50.120;8.698;2023-03-01T07:10:55;0.40;99.90
1570;DHT22;778;50.120;8.698;2023-03-01T07:13:24;0.40;99.90
1570;DHT22;778;50.120;8.698;2023-03-01T07:15:52;0.40;99.90
1570;DHT22;778;50.120;8.698;2023-03-01T07:18:21;0.40;99.90
1570;DHT22;778;50.120;8.698;2023-03-01T07:20:51;0.50;99.90
1570;DHT22;778;50.120;8.698;2023-03-01T07:23:20;0.50;99.90
1570;DHT22;778;50.120;8.698;2023-03-01T07:25:52;0.50;99.90
1570;DHT22;778;50.120;8.698;2023-03-01T07:28:22;0.50;99.90
1570;DHT22;778;50.120;8.698;2023-03-01T07:30:51;0.50;99.90
1570;DHT22;778;50.120;8.698;2023-03-01T07:33:19;0.40;99.90
1570;DHT22;778;50.120;8.698;2023-03-01T07:35:48;0.40;99.90
1570;DHT22;778;50.120;8.698;2023-03-01T07:38:18;0.40;99.90
1570;DHT22;778;50.120;8.698;2023-03-01T07:40:46;0.40;99.90
1570;DHT22;778;50.120;8.698;2023-03-01T07:43:14;0.50;99.90
1570;DHT22;778;50.120;8.698;2023-03-01T07:45:43;0.50;99.90
1570;DHT22;778;50.120;8.698;2023-03-01T07:48:12;0.50;99.90
1570;DHT22;778;50.120;8.698;2023-03-01T07:50:40;0.50;99.90
1570;DHT22;778;50.120;8.698;2023-03-01T07:53:09;0.60;99.90
1570;DHT22;778;50.120;8.698;2023-03-01T07:55:39;0.50;99.90
1570;DHT22;778;50.120;8.698;2023-03-01T07:58:07;0.50;99.90
1570;DHT22;778;50.120;8.698;2023-03-01T08:00:36;0.60;99.90
1570;DHT22;778;50.120;8.698;2023-03-01T08:03:04;0.60;99.90
1570;DHT22;778;50.120;8.698;2023-03-01T08:05:33;0.70;99.90
1570;DHT22;778;50.120;8.698;2023-03-01T08:08:01;0.80;99.90
1570;DHT22;778;50.120;8.698;2023-03-01T08:10:29;0.80;99.90
1570;DHT22;778;50.120;8.698;2023-03-01T08:12:59;0.90;99.90
1570;DHT22;778;50.120;8.698;2023-03-01T08:15:28;1.10;99.90
1570;DHT22;778;50.120;8.698;2023-03-01T08:17:57;1.10;99.90
1570;DHT22;778;50.120;8.698;2023-03-01T08:20:25;1.20;99.90
1570;DHT22;778;50.120;8.698;2023-03-01T08:22:53;1.30;99.90
1570;DHT22;778;50.120;8.698;2023-03-01T08:25:22;1.30;99.90
1570;DHT22;778;50.120;8.698;2023-03-01T08:27:51;1.40;99.90
1570;DHT22;778;50.120;8.698;2023-03-01T08:30:21;1.50;99.90
1570;DHT22;778;50.120;8.698;2023-03-01T08:32:50;1.70;99.90
1570;DHT22;778;50.120;8.698;2023-03-01T08:35:20;1.70;99.90
1570;DHT22;778;50.120;8.698;2023-03-01T08:37:49;1.70;99.90
1570;DHT22;778;50.120;8.698;2023-03-01T08:40:18;1.70;99.90
1570;DHT22;778;50.120;8.698;2023-03-01T08:42:46;1.90;99.90
1570;DHT22;778;50.120;8.698;2023-03-01T08:45:15;2.00;99.90
1570;DHT22;778;50.120;8.698;2023-03-01T08:47:46;2.10;99.90
1570;DHT22;778;50.120;8.698;2023-03-01T08:50:15;2.30;99.90
1570;DHT22;778;50.120;8.698;2023-03-01T08:52:43;2.70;99.90
1570;DHT22;778;50.120;8.698;2023-03-01T08:55:12;3.20;99.90
1570;DHT22;778;50.120;8.698;2023-03-01T08:57:41;3.60;99.90
1570;DHT22;778;50.120;8.698;2023-03-01T09:00:11;3.80;99.90
1570;DHT22;778;50.120;8.698;2023-03-01T09:02:41;3.80;99.90
1570;DHT22;778;50.120;8.698;2023-03-01T09:05:11;4.10;99.90
1570;DHT22;778;50.120;8.698;2023-03-01T09:07:40;4.20;99.90
1570;DHT22;778;50.120;8.698;2023-03-01T09:10:09;4.30;99.90
1570;DHT22;778;50.120;8.698;2023-03-01T09:12:38;4.40;99.90
1570;DHT22;778;50.120;8.698;2023-03-01T09:15:08;4.60;99.90
1570;DHT22;778;50.120;8.698;2023-03-01T09:17:37;4.80;99.90
1570;DHT22;778;50.120;8.698;2023-03-01T09:20:06;5.10;99.90
1570;DHT22;778;50.120;8.698;2023-03-01T09:22:36;5.30;99.90
1570;DHT22;778;50.120;8.698;2023-03-01T09:25:05;5.70;99.90
1570;DHT22;778;50.120;8.698;2023-03-01T09:27:34;5.60;99.90
1570;DHT22;778;50.120;8.698;2023-03-01T09:30:03;5.50;99.60
1570;DHT22;778;50.120;8.698;2023-03-01T09:32:32;5.50;99.90
1570;DHT22;778;50.120;8.698;2023-03-01T09:35:01;5.60;99.90
1570;DHT22;778;50.120;8.698;2023-03-01T09:37:32;5.70;99.90
1570;DHT22;778;50.120;8.698;2023-03-01T09:40:03;5.60;99.20
1570;DHT22;778;50.120;8.698;2023-03-01T09:42:34;5.70;99.60
1570;DHT22;778;50.120;8.698;2023-03-01T09:45:06;5.90;99.40
1570;DHT22;778;50.120;8.698;2023-03-01T09:47:40;5.80;98.80
1570;DHT22;778;50.120;8.698;2023-03-01T09:50:11;5.80;99.30
1570;DHT22;778;50.120;8.698;2023-03-01T09:52:46;5.80;98.10
1570;DHT22;778;50.120;8.698;2023-03-01T09:55:30;5.80;98.20
1570;DHT22;778;50.120;8.698;2023-03-01T09:58:04;6.00;96.80
1570;DHT22;778;50.120;8.698;2023-03-01T10:00:43;6.00;96.70
1570;DHT22;778;50.120;8.698;2023-03-01T10:03:17;6.30;96.60
1570;DHT22;778;50.120;8.698;2023-03-01T10:05:58;6.40;94.90
1570;DHT22;778;50.120;8.698;2023-03-01T10:08:36;6.30;96.00
1570;DHT22;778;50.120;8.698;2023-03-01T10:11:19;6.50;94.90
1570;DHT22;778;50.120;8.698;2023-03-01T10:13:57;6.40;94.00
1570;DHT22;778;50.120;8.698;2023-03-01T10:16:37;6.30;95.00
1570;DHT22;778;50.120;8.698;2023-03-01T10:19:12;6.70;94.10
1570;DHT22;778;50.120;8.698;2023-03-01T10:21:45;6.90;91.90
1570;DHT22;778;50.120;8.698;2023-03-01T10:24:15;6.70;92.40
1570;DHT22;778;50.120;8.698;2023-03-01T10:26:54;6.70;93.00
1570;DHT22;778;50.120;8.698;2023-03-01T10:29:26;6.90;92.20
1570;DHT22;778;50.120;8.698;2023-03-01T10:31:58;7.00;91.70
1570;DHT22;778;50.120;8.698;2023-03-01T10:34:29;7.20;90.80
1570;DHT22;778;50.120;8.698;2023-03-01T10:37:07;7.10;90.30
1570;DHT22;778;50.120;8.698;2023-03-01T10:39:55;7.10;90.60
1570;DHT22;778;50.120;8.698;2023-03-01T10:42:31;7.20;90.10
1570;DHT22;778;50.120;8.698;2023-03-01T10:45:16;7.60;90.10
1570;DHT22;778;50.120;8.698;2023-03-01T10:48:03;7.60;88.20
1570;DHT22;778;50.120;8.698;2023-03-01T10:50:33;7.60;86.50
1570;DHT22;778;50.120;8.698;2023-03-01T10:53:26;7.40;85.60
1570;DHT22;778;50.120;8.698;2023-03-01T10:55:58;7.40;85.90
1570;DHT22;778;50.120;8.698;2023-03-01T10:58:31;7.60;85.50
1570;DHT22;778;50.120;8.698;2023-03-01T11:01:02;7.70;85.70
1570;DHT22;778;50.120;8.698;2023-03-01T11:03:34;7.60;83.70
1570;DHT22;778;50.120;8.698;2023-03-01T11:06:06;7.50;82.30
1570;DHT22;778;50.120;8.698;2023-03-01T11:08:49;7.80;83.70
1570;DHT22;778;50.120;8.698;2023-03-01T11:11:24;8.10;81.00
1570;DHT22;778;50.120;8.698;2023-03-01T11:14:02;8.20;82.70
1570;DHT22;778;50.120;8.698;2023-03-01T11:17:00;8.40;80.40
1570;DHT22;778;50.120;8.698;2023-03-01T11:19:30;8.50;77.70
1570;DHT22;778;50.120;8.698;2023-03-01T11:22:02;8.60;76.60
1570;DHT22;778;50.120;8.698;2023-03-01T11:24:39;8.70;74.40
1570;DHT22;778;50.120;8.698;2023-03-01T11:27:21;8.60;74.10
1570;DHT22;778;50.120;8.698;2023-03-01T11:29:57;9.00;70.50
1570;DHT22;778;50.120;8.698;2023-03-01T11:32:31;8.80;69.70
1570;DHT22;778;50.120;8.698;2023-03-01T11:35:10;8.60;70.40
1570;DHT22;778;50.120;8.698;2023-03-01T11:37:50;8.80;69.60
1570;DHT22;778;50.120;8.698;2023-03-01T11:40:31;8.80;66.00
1570;DHT22;778;50.120;8.698;2023-03-01T11:43:09;8.60;66.10
1570;DHT22;778;50.120;8.698;2023-03-01T11:45:51;8.90;64.90
1570;DHT22;778;50.120;8.698;2023-03-01T11:48:48;8.70;60.80
1570;DHT22;778;50.120;8.698;2023-03-01T11:51:38;8.80;60.30
1570;DHT22;778;50.120;8.698;2023-03-01T11:54:21;9.10;61.00
1570;DHT22;778;50.120;8.698;2023-03-01T11:57:01;9.30;60.40
1570;DHT22;778;50.120;8.698;2023-03-01T11:59:54;9.10;58.60
1570;DHT22;778;50.120;8.698;2023-03-01T12:02:54;9.00;59.10
1570;DHT22;778;50.120;8.698;2023-03-01T12:05:51;9.30;58.90
1570;DHT22;778;50.120;8.698;2023-03-01T12:08:43;9.30;59.10
1570;DHT22;778;50.120;8.698;2023-03-01T12:11:26;9.10;57.90
1570;DHT22;778;50.120;8.698;2023-03-01T12:14:36;9.20;57.60
1570;DHT22;778;50.120;8.698;2023-03-01T12:17:46;8.90;57.50
1570;DHT22;778;50.120;8.698;2023-03-01T12:20:38;8.90;58.80
1570;DHT22;778;50.120;8.698;2023-03-01T12:23:25;8.80;57.70
1570;DHT22;778;50.120;8.698;2023-03-01T12:26:20;8.80;56.80
1570;DHT22;778;50.120;8.698;2023-03-01T12:29:07;8.90;57.10
1570;DHT22;778;50.120;8.698;2023-03-01T12:32:09;8.90;57.10
1570;DHT22;778;50.120;8.698;2023-03-01T12:35:11;9.10;57.90
1570;DHT22;778;50.120;8.698;2023-03-01T12:37:54;9.30;58.10
1570;DHT22;778;50.120;8.698;2023-03-01T12:43:58;9.40;56.20
1570;DHT22;778;50.120;8.698;2023-03-01T12:46:43;9.20;56.40
1570;DHT22;778;50.120;8.698;2023-03-01T12:49:23;9.20;56.30
1570;DHT22;778;50.120;8.698;2023-03-01T12:51:59;9.00;56.00
1570;DHT22;778;50.120;8.698;2023-03-01T12:54:31;8.70;56.70
1570;DHT22;778;50.120;8.698;2023-03-01T12:57:08;8.70;56.60
1570;DHT22;778;50.120;8.698;2023-03-01T12:59:45;8.70;57.30
1570;DHT22;778;50.120;8.698;2023-03-01T13:02:23;8.80;57.00
1570;DHT22;778;50.120;8.698;2023-03-01T13:05:04;8.70;55.50
1570;DHT22;778;50.120;8.698;2023-03-01T13:07:40;8.90;55.70
1570;DHT22;778;50.120;8.698;2023-03-01T13:10:18;9.00;55.70
1570;DHT22;778;50.120;8.698;2023-03-01T13:13:01;9.00;55.20
1570;DHT22;778;50.120;8.698;2023-03-01T13:15:37;9.10;55.70
1570;DHT22;778;50.120;8.698;2023-03-01T13:18:27;9.20;55.20
1570;DHT22;778;50.120;8.698;2023-03-01T13:21:01;9.30;55.00
1570;DHT22;778;50.120;8.698;2023-03-01T13:23:35;9.30;56.70
1570;DHT22;778;50.120;8.698;2023-03-01T13:26:11;9.30;57.60
1570;DHT22;778;50.120;8.698;2023-03-01T13:28:49;9.40;58.70
1570;DHT22;778;50.120;8.698;2023-03-01T13:34:59;9.20;58.30
1570;DHT22;778;50.120;8.698;2023-03-01T13:37:32;9.10;58.80
1570;DHT22;778;50.120;8.698;2023-03-01T13:43:30;8.70;59.40
1570;DHT22;778;50.120;8.698;2023-03-01T13:46:02;8.80;59.70
1570;DHT22;778;50.120;8.698;2023-03-01T13:48:38;8.80;60.10
1570;DHT22;778;50.120;8.698;2023-03-01T13:51:09;8.70;60.60
1570;DHT22;778;50.120;8.698;2023-03-01T13:53:41;8.70;60.60
1570;DHT22;778;50.120;8.698;2023-03-01T13:56:15;8.70;60.30
1570;DHT22;778;50.120;8.698;2023-03-01T13:58:50;8.70;60.30
1570;DHT22;778;50.120;8.698;2023-03-01T14:01:24;8.90;60.60
1570;DHT22;778;50.120;8.698;2023-03-01T14:03:57;8.80;60.30
1570;DHT22;778;50.120;8.698;2023-03-01T14:06:28;8.60;60.00
1570;DHT22;778;50.120;8.698;2023-03-01T14:09:04;8.70;60.50
1570;DHT22;778;50.120;8.698;2023-03-01T14:12:04;8.60;61.00
1570;DHT22;778;50.120;8.698;2023-03-01T14:14:51;8.70;60.40
1570;DHT22;778;50.120;8.698;2023-03-01T14:17:52;8.90;60.20
1570;DHT22;778;50.120;8.698;2023-03-01T14:20:26;8.80;60.00
1570;DHT22;778;50.120;8.698;2023-03-01T14:22:58;8.80;60.20
1570;DHT22;778;50.120;8.698;2023-03-01T14:25:29;8.70;60.70
1570;DHT22;778;50.120;8.698;2023-03-01T14:28:11;8.70;60.70
1570;DHT22;778;50.120;8.698;2023-03-01T14:30:44;8.60;60.90
1570;DHT22;778;50.120;8.698;2023-03-01T14:33:20;8.70;61.20
1570;DHT22;778;50.120;8.698;2023-03-01T14:35:56;8.70;61.60
1570;DHT22;778;50.120;8.698;2023-03-01T14:38:33;8.60;60.30
1570;DHT22;778;50.120;8.698;2023-03-01T14:41:05;8.60;61.10
1570;DHT22;778;50.120;8.698;2023-03-01T14:43:37;8.60;61.00
1570;DHT22;778;50.120;8.698;2023-03-01T14:46:17;8.50;60.90
1570;DHT22;778;50.120;8.698;2023-03-01T14:48:49;8.50;61.20
1570;DHT22;778;50.120;8.698;2023-03-01T14:51:18;8.60;61.00
1570;DHT22;778;50.120;8.698;2023-03-01T14:53:47;8.50;61.50
1570;DHT22;778;50.120;8.698;2023-03-01T14:56:17;8.60;61.60
1570;DHT22;778;50.120;8.698;2023-03-01T14:58:51;8.50;61.20
1570;DHT22;778;50.120;8.698;2023-03-01T15:01:21;8.40;61.60
1570;DHT22;778;50.120;8.698;2023-03-01T15:03:51;8.30;61.70
1570;DHT22;778;50.120;8.698;2023-03-01T15:06:20;8.40;62.00
1570;DHT22;778;50.120;8.698;2023-03-01T15:08:52;8.40;62.80
1570;DHT22;778;50.120;8.698;2023-03-01T15:11:26;8.30;61.30
1570;DHT22;778;50.120;8.698;2023-03-01T15:13:59;8.40;61.60
1570;DHT22;778;50.120;8.698;2023-03-01T15:16:29;8.40;61.50
1570;DHT22;778;50.120;8.698;2023-03-01T15:19:01;8.40;61.20
1570;DHT22;778;50.120;8.698;2023-03-01T15:21:32;8.20;61.20
1570;DHT22;778;50.120;8.698;2023-03-01T15:24:05;8.20;61.60
1570;DHT22;778;50.120;8.698;2023-03-01T15:26:50;8.20;61.80
1570;DHT22;778;50.120;8.698;2023-03-01T15:29:24;8.20;61.60
1570;DHT22;778;50.120;8.698;2023-03-01T15:31:58;8.20;61.50
1570;DHT22;778;50.120;8.698;2023-03-01T15:34:29;8.20;60.70
1570;DHT22;778;50.120;8.698;2023-03-01T15:37:01;8.10;60.30
1570;DHT22;778;50.120;8.698;2023-03-01T15:39:35;8.10;60.40
1570;DHT22;778;50.120;8.698;2023-03-01T15:42:09;8.10;60.20
1570;DHT22;778;50.120;8.698;2023-03-01T15:44:40;8.20;60.60
1570;DHT22;778;50.120;8.698;2023-03-01T15:47:36;8.00;60.50
1570;DHT22;778;50.120;8.698;2023-03-01T15:50:16;8.10;61.30
1570;DHT22;778;50.120;8.698;2023-03-01T15:52:47;8.10;61.00
1570;DHT22;778;50.120;8.698;2023-03-01T15:55:19;8.10;61.00
1570;DHT22;778;50.120;8.698;2023-03-01T15:57:58;8.00;60.80
1570;DHT22;778;50.120;8.698;2023-03-01T16:00:30;8.00;61.00
1570;DHT22;778;50.120;8.698;2023-03-01T16:02:58;8.00;61.30
1570;DHT22;778;50.120;8.698;2023-03-01T16:05:29;7.90;61.20
1570;DHT22;778;50.120;8.698;2023-03-01T16:08:00;7.90;61.80
1570;DHT22;778;50.120;8.698;2023-03-01T16:10:29;7.90;61.80
1570;DHT22;778;50.120;8.698;2023-03-01T16:12:58;7.80;62.40
1570;DHT22;778;50.120;8.698;2023-03-01T16:15:32;7.90;62.80
1570;DHT22;778;50.120;8.698;2023-03-01T16:18:03;7.80;62.70
1570;DHT22;778;50.120;8.698;2023-03-01T16:20:32;7.70;63.60
1570;DHT22;778;50.120;8.698;2023-03-01T16:23:02;7.70;63.30
1570;DHT22;778;50.120;8.698;2023-03-01T16:25:36;7.60;63.30
1570;DHT22;778;50.120;8.698;2023-03-01T16:28:05;7.60;64.00
1570;DHT22;778;50.120;8.698;2023-03-01T16:30:38;7.60;63.50
1570;DHT22;778;50.120;8.698;2023-03-01T16:33:07;7.50;63.60
1570;DHT22;778;50.120;8.698;2023-03-01T16:35:56;7.50;63.70
1570;DHT22;778;50.120;8.698;2023-03-01T16:38:26;7.30;63.30
1570;DHT22;778;50.120;8.698;2023-03-01T16:40:55;7.30;63.60
1570;DHT22;778;50.120;8.698;2023-03-01T16:43:24;7.30;63.70
1570;DHT22;778;50.120;8.698;2023-03-01T16:45:54;7.20;63.90
1570;DHT22;778;50.120;8.698;2023-03-01T16:48:22;7.10;63.90
1570;DHT22;778;50.120;8.698;2023-03-01T16:50:58;7.10;64.20
1570;DHT22;778;50.120;8.698;2023-03-01T16:53:28;6.90;64.40
1570;DHT22;778;50.120;8.698;2023-03-01T16:55:58;7.00;64.90
1570;DHT22;778;50.120;8.698;2023-03-01T16:58:26;6.90;65.20
1570;DHT22;778;50.120;8.698;2023-03-01T17:00:56;6.90;65.50
1570;DHT22;778;50.120;8.698;2023-03-01T17:03:27;6.90;65.80
1570;DHT22;778;50.120;8.698;2023-03-01T17:05:56;6.90;66.30
1570;DHT22;778;50.120;8.698;2023-03-01T17:08:25;6.90;66.80
1570;DHT22;778;50.120;8.698;2023-03-01T17:10:53;6.80;67.10
1570;DHT22;778;50.120;8.698;2023-03-01T17:13:23;6.80;67.30
1570;DHT22;778;50.120;8.698;2023-03-01T17:15:51;6.70;67.50
1570;DHT22;778;50.120;8.698;2023-03-01T17:18:22;6.70;68.20
1570;DHT22;778;50.120;8.698;2023-03-01T17:20:51;6.70;68.50
1570;DHT22;778;50.120;8.698;2023-03-01T17:23:19;6.60;69.10